sensor_id;sensor_type;location;lat;lon;timestamp;pressure;altitude;pressure_sealevel;temperature;humidity
85066;BME280;75401;52.588;13.224;2024-02-23T00:01:54;98153.91;;;13.57;74.80
85066;BME280;75401;52.588;13.224;2024-02-23T00:04:19;98149.47;;;13.63;74.93
85066;BME280;75401;52.588;13.224;2024-02-23T00:06:45;98155.66;;;13.75;74.28
85066;BME280;75401;52.588;13.224;2024-02-23T00:09:10;98129.84;;;13.62;74.36
85066;BME280;75401;52.588;13.224;2024-02-23T00:11:35;98139.53;;;13.75;74.07
85066;BME280;75401;52.588;13.224;2024-02-23T00:14:04;98151.69;;;13.77;73.95
85066;BME280;75401;52.588;13.224;2024-02-23T00:16:30;98160.66;;;13.83;73.92
85066;BME280;75401;52.588;13.224;2024-02-23T00:18:56;98161.25;;;13.85;73.78
85066;BME280;75401;52.588;13.224;2024-02-23T00:21:21;98149.69;;;13.84;74.03
85066;BME280;75401;52.588;13.224;2024-02-23T00:23:47;98111.66;;;13.64;73.57
85066;BME280;75401;52.588;13.224;2024-02-23T00:26:12;98136.63;;;13.76;73.44
85066;BME280;75401;52.588;13.224;2024-02-23T00:28:37;98143.25;;;13.85;73.14
85066;BME280;75401;52.588;13.224;2024-02-23T00:31:03;98142.09;;;13.81;73.58
85066;BME280;75401;52.588;13.224;2024-02-23T00:33:30;98127.13;;;13.85;72.99
85066;BME280;75401;52.588;13.224;2024-02-23T00:35:55;98134.88;;;13.82;72.57
85066;BME280;75401;52.588;13.224;2024-02-23T00:38:20;98138.13;;;13.84;72.81
85066;BME280;75401;52.588;13.224;2024-02-23T00:40:46;98130.78;;;13.79;73.12
85066;BME280;75401;52.588;13.224;2024-02-23T00:43:11;98139.88;;;13.78;72.64
85066;BME280;75401;52.588;13.224;2024-02-23T00:45:36;98154.00;;;13.85;72.88
85066;BME280;75401;52.588;13.224;2024-02-23T00:48:02;98143.03;;;13.75;72.28
85066;BME280;75401;52.588;13.224;2024-02-23T00:50:29;98141.28;;;13.81;72.97
85066;BME280;75401;52.588;13.224;2024-02-23T00:52:54;98141.63;;;13.73;72.31
85066;BME280;75401;52.588;13.224;2024-02-23T00:55:20;98161.28;;;13.73;72.40
85066;BME280;75401;52.588;13.224;2024-02-23T00:57:45;98165.47;;;13.81;72.52
85066;BME280;75401;52.588;13.224;2024-02-23T01:00:11;98173.06;;;13.84;72.16
85066;BME280;75401;52.588;13.224;2024-02-23T01:02:37;98179.03;;;13.74;72.06
85066;BME280;75401;52.588;13.224;2024-02-23T01:05:03;98184.63;;;13.73;72.29
85066;BME280;75401;52.588;13.224;2024-02-23T01:07:30;98187.69;;;13.76;72.37
85066;BME280;75401;52.588;13.224;2024-02-23T01:09:55;98185.69;;;13.83;71.85
85066;BME280;75401;52.588;13.224;2024-02-23T01:12:20;98190.59;;;13.86;71.63
85066;BME280;75401;52.588;13.224;2024-02-23T01:14:46;98206.72;;;13.86;71.72
85066;BME280;75401;52.588;13.224;2024-02-23T01:17:11;98216.06;;;13.84;71.55
85066;BME280;75401;52.588;13.224;2024-02-23T01:19:36;98216.63;;;13.86;71.47
85066;BME280;75401;52.588;13.224;2024-02-23T01:22:02;98223.41;;;13.88;71.21
85066;BME280;75401;52.588;13.224;2024-02-23T01:24:29;98238.63;;;13.71;70.67
85066;BME280;75401;52.588;13.224;2024-02-23T01:26:55;98232.91;;;13.79;70.88
85066;BME280;75401;52.588;13.224;2024-02-23T01:29:20;98226.69;;;13.79;69.92
85066;BME280;75401;52.588;13.224;2024-02-23T01:31:46;98236.97;;;13.94;70.65
85066;BME280;75401;52.588;13.224;2024-02-23T01:34:11;98243.66;;;14.03;69.93
85066;BME280;75401;52.588;13.224;2024-02-23T01:36:36;98258.72;;;13.92;68.96
85066;BME280;75401;52.588;13.224;2024-02-23T01:39:02;98250.19;;;14.07;69.39
85066;BME280;75401;52.588;13.224;2024-02-23T01:41:29;98244.34;;;14.10;68.91
85066;BME280;75401;52.588;13.224;2024-02-23T01:43:54;98281.84;;;14.05;68.37
85066;BME280;75401;52.588;13.224;2024-02-23T01:46:19;98276.13;;;14.13;67.43
85066;BME280;75401;52.588;13.224;2024-02-23T01:48:45;98278.56;;;14.14;66.55
85066;BME280;75401;52.588;13.224;2024-02-23T01:51:11;98292.81;;;14.26;66.42
85066;BME280;75401;52.588;13.224;2024-02-23T01:53:38;98302.66;;;14.21;64.31
85066;BME280;75401;52.588;13.224;2024-02-23T01:56:04;98310.25;;;14.12;65.62
85066;BME280;75401;52.588;13.224;2024-02-23T01:58:33;98315.75;;;14.17;65.16
85066;BME280;75401;52.588;13.224;2024-02-23T02:01:00;98323.81;;;14.17;64.66
85066;BME280;75401;52.588;13.224;2024-02-23T02:03:26;98349.44;;;14.31;64.01
85066;BME280;75401;52.588;13.224;2024-02-23T02:05:52;98366.50;;;14.25;63.09
85066;BME280;75401;52.588;13.224;2024-02-23T02:08:18;98364.84;;;14.24;62.71
85066;BME280;75401;52.588;13.224;2024-02-23T02:10:43;98382.53;;;14.20;62.65
85066;BME280;75401;52.588;13.224;2024-02-23T02:13:09;98390.09;;;14.23;62.87
85066;BME280;75401;52.588;13.224;2024-02-23T02:15:35;98391.72;;;14.01;62.64
85066;BME280;75401;52.588;13.224;2024-02-23T02:18:01;98403.78;;;14.22;63.85
85066;BME280;75401;52.588;13.224;2024-02-23T02:20:27;98398.88;;;14.19;60.73
85066;BME280;75401;52.588;13.224;2024-02-23T02:22:53;98409.41;;;14.20;61.44
85066;BME280;75401;52.588;13.224;2024-02-23T02:25:18;98431.91;;;13.96;61.64
85066;BME280;75401;52.588;13.224;2024-02-23T02:27:44;98448.16;;;13.90;59.76
85066;BME280;75401;52.588;13.224;2024-02-23T02:30:10;98459.34;;;13.86;60.05
85066;BME280;75401;52.588;13.224;2024-02-23T02:32:37;98470.13;;;13.98;59.73
85066;BME280;75401;52.588;13.224;2024-02-23T02:35:02;98480.44;;;14.01;58.62
85066;BME280;75401;52.588;13.224;2024-02-23T02:37:28;98488.25;;;13.73;58.78
85066;BME280;75401;52.588;13.224;2024-02-23T02:39:53;98500.53;;;13.51;58.56
85066;BME280;75401;52.588;13.224;2024-02-23T02:42:18;98502.94;;;13.59;59.24
85066;BME280;75401;52.588;13.224;2024-02-23T02:44:44;98510.47;;;13.50;57.77
85066;BME280;75401;52.588;13.224;2024-02-23T02:47:09;98510.75;;;13.42;58.78
85066;BME280;75401;52.588;13.224;2024-02-23T02:49:36;98522.47;;;13.48;58.98
85066;BME280;75401;52.588;13.224;2024-02-23T02:52:01;98518.13;;;13.10;55.25
85066;BME280;75401;52.588;13.224;2024-02-23T02:54:26;98536.13;;;13.03;57.14
85066;BME280;75401;52.588;13.224;2024-02-23T02:56:52;98533.84;;;13.07;56.02
85066;BME280;75401;52.588;13.224;2024-02-23T02:59:17;98533.34;;;13.16;56.13
85066;BME280;75401;52.588;13.224;2024-02-23T03:01:42;98534.81;;;12.88;54.18
85066;BME280;75401;52.588;13.224;2024-02-23T03:04:08;98548.44;;;12.93;55.28
85066;BME280;75401;52.588;13.224;2024-02-23T03:06:35;98545.78;;;12.86;55.20
85066;BME280;75401;52.588;13.224;2024-02-23T03:09:00;98558.59;;;12.84;56.18
85066;BME280;75401;52.588;13.224;2024-02-23T03:11:25;98558.63;;;12.78;56.15
85066;BME280;75401;52.588;13.224;2024-02-23T03:13:51;98569.88;;;12.68;54.77
85066;BME280;75401;52.588;13.224;2024-02-23T03:16:17;98572.84;;;12.85;55.40
85066;BME280;75401;52.588;13.224;2024-02-23T03:18:43;98555.75;;;12.54;55.66
85066;BME280;75401;52.588;13.224;2024-02-23T03:21:08;98573.47;;;12.80;55.91
85066;BME280;75401;52.588;13.224;2024-02-23T03:23:35;98577.25;;;12.73;55.97
85066;BME280;75401;52.588;13.224;2024-02-23T03:26:00;98577.91;;;12.43;55.70
85066;BME280;75401;52.588;13.224;2024-02-23T03:28:27;98586.47;;;12.58;57.13
85066;BME280;75401;52.588;13.224;2024-02-23T03:30:52;98585.63;;;12.58;54.71
85066;BME280;75401;52.588;13.224;2024-02-23T03:33:17;98593.50;;;12.53;56.77
85066;BME280;75401;52.588;13.224;2024-02-23T03:35:43;98592.31;;;12.49;56.11
85066;BME280;75401;52.588;13.224;2024-02-23T03:38:08;98603.28;;;12.41;55.34
85066;BME280;75401;52.588;13.224;2024-02-23T03:40:35;98605.72;;;12.49;56.38
85066;BME280;75401;52.588;13.224;2024-02-23T03:43:00;98610.59;;;12.58;55.92
85066;BME280;75401;52.588;13.224;2024-02-23T03:45:25;98621.63;;;12.44;55.48
85066;BME280;75401;52.588;13.224;2024-02-23T03:47:50;98622.66;;;12.43;55.11
85066;BME280;75401;52.588;13.224;2024-02-23T03:50:16;98620.19;;;12.41;55.84
85066;BME280;75401;52.588;13.224;2024-02-23T03:52:41;98631.78;;;12.35;54.83
85066;BME280;75401;52.588;13.224;2024-02-23T03:55:07;98645.06;;;12.17;53.79
85066;BME280;75401;52.588;13.224;2024-02-23T03:57:33;98658.75;;;12.40;54.88
85066;BME280;75401;52.588;13.224;2024-02-23T03:59:59;98663.94;;;12.35;55.35
85066;BME280;75401;52.588;13.224;2024-02-23T04:02:24;98676.41;;;12.17;54.78
85066;BME280;75401;52.588;13.224;2024-02-23T04:04:49;98662.56;;;12.20;54.25
85066;BME280;75401;52.588;13.224;2024-02-23T04:07:15;98672.81;;;12.36;54.74
85066;BME280;75401;52.588;13.224;2024-02-23T04:09:40;98673.91;;;12.22;53.91
85066;BME280;75401;52.588;13.224;2024-02-23T04:12:06;98683.97;;;12.33;53.76
85066;BME280;75401;52.588;13.224;2024-02-23T04:14:33;98693.25;;;12.30;54.02
85066;BME280;75401;52.588;13.224;2024-02-23T04:16:58;98698.66;;;12.17;54.01
85066;BME280;75401;52.588;13.224;2024-02-23T04:19:23;98698.97;;;11.89;53.36
85066;BME280;75401;52.588;13.224;2024-02-23T04:21:49;98700.50;;;12.17;54.48
85066;BME280;75401;52.588;13.224;2024-02-23T04:24:14;98716.19;;;12.26;54.34
85066;BME280;75401;52.588;13.224;2024-02-23T04:26:39;98711.09;;;11.98;53.78
85066;BME280;75401;52.588;13.224;2024-02-23T04:29:04;98715.81;;;12.10;54.80
85066;BME280;75401;52.588;13.224;2024-02-23T04:31:31;98728.41;;;12.03;53.11
85066;BME280;75401;52.588;13.224;2024-02-23T04:33:56;98741.59;;;11.91;53.67
85066;BME280;75401;52.588;13.224;2024-02-23T04:36:22;98743.09;;;11.74;52.06
85066;BME280;75401;52.588;13.224;2024-02-23T04:38:47;98746.53;;;12.07;53.80
85066;BME280;75401;52.588;13.224;2024-02-23T04:41:12;98760.38;;;11.91;52.87
85066;BME280;75401;52.588;13.224;2024-02-23T04:43:38;98778.28;;;11.64;52.13
85066;BME280;75401;52.588;13.224;2024-02-23T04:46:03;98769.66;;;11.69;52.30
85066;BME280;75401;52.588;13.224;2024-02-23T04:48:30;98780.19;;;11.77;52.34
85066;BME280;75401;52.588;13.224;2024-02-23T04:50:55;98799.34;;;11.87;52.80
85066;BME280;75401;52.588;13.224;2024-02-23T04:53:20;98799.56;;;11.85;52.55
85066;BME280;75401;52.588;13.224;2024-02-23T04:55:45;98810.44;;;11.45;51.04
85066;BME280;75401;52.588;13.224;2024-02-23T04:58:11;98821.72;;;11.40;50.91
85066;BME280;75401;52.588;13.224;2024-02-23T05:00:36;98810.84;;;11.42;51.64
85066;BME280;75401;52.588;13.224;2024-02-23T05:03:02;98818.03;;;11.41;52.11
85066;BME280;75401;52.588;13.224;2024-02-23T05:05:28;98847.69;;;11.46;52.21
85066;BME280;75401;52.588;13.224;2024-02-23T05:07:54;98841.28;;;11.34;52.00
85066;BME280;75401;52.588;13.224;2024-02-23T05:10:20;98847.06;;;11.37;51.36
85066;BME280;75401;52.588;13.224;2024-02-23T05:12:45;98874.44;;;11.26;50.84
85066;BME280;75401;52.588;13.224;2024-02-23T05:15:10;98870.13;;;11.38;51.90
85066;BME280;75401;52.588;13.224;2024-02-23T05:17:36;98871.31;;;11.23;50.39
85066;BME280;75401;52.588;13.224;2024-02-23T05:20:01;98873.38;;;11.27;52.82
85066;BME280;75401;52.588;13.224;2024-02-23T05:22:28;98878.34;;;11.30;52.52
85066;BME280;75401;52.588;13.224;2024-02-23T05:24:53;98893.53;;;11.17;52.20
85066;BME280;75401;52.588;13.224;2024-02-23T05:27:19;98904.59;;;11.01;53.16
85066;BME280;75401;52.588;13.224;2024-02-23T05:29:44;98909.72;;;11.02;52.52
85066;BME280;75401;52.588;13.224;2024-02-23T05:32:09;98910.75;;;11.01;53.15
85066;BME280;75401;52.588;13.224;2024-02-23T05:34:35;98911.41;;;11.03;53.38
85066;BME280;75401;52.588;13.224;2024-02-23T05:37:00;98916.53;;;10.98;52.83
85066;BME280;75401;52.588;13.224;2024-02-23T05:39:27;98923.94;;;11.03;54.07
85066;BME280;75401;52.588;13.224;2024-02-23T05:41:52;98934.22;;;10.99;54.44
85066;BME280;75401;52.588;13.224;2024-02-23T05:44:18;98958.28;;;10.99;54.42
85066;BME280;75401;52.588;13.224;2024-02-23T05:46:43;98957.63;;;10.91;55.05
85066;BME280;75401;52.588;13.224;2024-02-23T05:49:08;98953.84;;;10.79;54.97
85066;BME280;75401;52.588;13.224;2024-02-23T05:51:34;98977.59;;;10.88;54.71
85066;BME280;75401;52.588;13.224;2024-02-23T05:53:59;98996.31;;;10.88;54.87
85066;BME280;75401;52.588;13.224;2024-02-23T05:56:26;98993.72;;;10.73;55.32
85066;BME280;75401;52.588;13.224;2024-02-23T05:58:51;98998.66;;;10.70;55.76
85066;BME280;75401;52.588;13.224;2024-02-23T06:01:17;98998.44;;;10.71;55.54
85066;BME280;75401;52.588;13.224;2024-02-23T06:03:42;98994.75;;;10.72;55.37
85066;BME280;75401;52.588;13.224;2024-02-23T06:06:08;99009.75;;;10.67;55.85
85066;BME280;75401;52.588;13.224;2024-02-23T06:08:33;99003.59;;;10.45;56.04
85066;BME280;75401;52.588;13.224;2024-02-23T06:10:58;99031.34;;;10.44;56.00
85066;BME280;75401;52.588;13.224;2024-02-23T06:13:25;99028.13;;;10.55;56.10
85066;BME280;75401;52.588;13.224;2024-02-23T06:15:50;99037.09;;;10.41;55.71
85066;BME280;75401;52.588;13.224;2024-02-23T06:18:16;99022.13;;;10.47;56.08
85066;BME280;75401;52.588;13.224;2024-02-23T06:20:41;99067.91;;;10.37;55.83
85066;BME280;75401;52.588;13.224;2024-02-23T06:23:06;99079.53;;;10.51;56.26
85066;BME280;75401;52.588;13.224;2024-02-23T06:25:32;99087.47;;;10.65;57.43
85066;BME280;75401;52.588;13.224;2024-02-23T06:27:57;99074.63;;;10.54;55.62
85066;BME280;75401;52.588;13.224;2024-02-23T06:30:24;99082.84;;;10.32;55.88
85066;BME280;75401;52.588;13.224;2024-02-23T06:32:49;99091.41;;;10.27;56.69
85066;BME280;75401;52.588;13.224;2024-02-23T06:35:14;99093.41;;;10.40;56.55
85066;BME280;75401;52.588;13.224;2024-02-23T06:37:40;99073.38;;;10.29;56.55
85066;BME280;75401;52.588;13.224;2024-02-23T06:40:06;99092.00;;;10.44;56.89
85066;BME280;75401;52.588;13.224;2024-02-23T06:42:32;99101.50;;;10.46;57.26
85066;BME280;75401;52.588;13.224;2024-02-23T06:44:57;99109.13;;;10.28;56.53
85066;BME280;75401;52.588;13.224;2024-02-23T06:47:24;99115.75;;;10.32;57.67
85066;BME280;75401;52.588;13.224;2024-02-23T06:49:49;99117.75;;;10.30;57.21
85066;BME280;75401;52.588;13.224;2024-02-23T06:52:14;99116.16;;;10.15;57.20
85066;BME280;75401;52.588;13.224;2024-02-23T06:54:40;99105.19;;;10.24;57.50
85066;BME280;75401;52.588;13.224;2024-02-23T06:57:05;99126.13;;;10.42;57.45
85066;BME280;75401;52.588;13.224;2024-02-23T06:59:30;99140.31;;;10.42;57.27
85066;BME280;75401;52.588;13.224;2024-02-23T07:01:56;99149.91;;;10.58;57.86
85066;BME280;75401;52.588;13.224;2024-02-23T07:04:22;99140.44;;;10.55;56.73
85066;BME280;75401;52.588;13.224;2024-02-23T07:06:48;99142.91;;;10.36;56.31
85066;BME280;75401;52.588;13.224;2024-02-23T07:09:13;99142.44;;;10.47;57.35
85066;BME280;75401;52.588;13.224;2024-02-23T07:11:39;99137.25;;;10.66;56.86
85066;BME280;75401;52.588;13.224;2024-02-23T07:14:04;99156.53;;;10.41;55.28
85066;BME280;75401;52.588;13.224;2024-02-23T07:16:30;99163.72;;;10.40;55.07
85066;BME280;75401;52.588;13.224;2024-02-23T07:18:55;99155.84;;;10.53;55.93
85066;BME280;75401;52.588;13.224;2024-02-23T07:21:22;99163.28;;;10.58;55.44
85066;BME280;75401;52.588;13.224;2024-02-23T07:23:47;99161.97;;;10.68;55.23
85066;BME280;75401;52.588;13.224;2024-02-23T07:26:13;99172.28;;;10.71;55.22
85066;BME280;75401;52.588;13.224;2024-02-23T07:28:38;99170.69;;;10.56;55.35
85066;BME280;75401;52.588;13.224;2024-02-23T07:31:03;99179.69;;;10.69;54.76
85066;BME280;75401;52.588;13.224;2024-02-23T07:33:29;99176.28;;;10.61;55.59
85066;BME280;75401;52.588;13.224;2024-02-23T07:35:54;99173.44;;;10.62;54.88
85066;BME280;75401;52.588;13.224;2024-02-23T07:38:21;99178.28;;;10.52;54.97
85066;BME280;75401;52.588;13.224;2024-02-23T07:40:46;99167.69;;;10.87;56.12
85066;BME280;75401;52.588;13.224;2024-02-23T07:43:11;99171.91;;;10.96;56.63
85066;BME280;75401;52.588;13.224;2024-02-23T07:45:37;99170.69;;;10.77;54.38
85066;BME280;75401;52.588;13.224;2024-02-23T07:48:03;99177.25;;;10.74;53.68
85066;BME280;75401;52.588;13.224;2024-02-23T07:50:29;99177.63;;;10.71;54.14
85066;BME280;75401;52.588;13.224;2024-02-23T07:52:54;99181.78;;;10.95;54.58
85066;BME280;75401;52.588;13.224;2024-02-23T07:55:21;99195.31;;;10.94;54.78
85066;BME280;75401;52.588;13.224;2024-02-23T07:57:46;99194.31;;;10.95;54.53
85066;BME280;75401;52.588;13.224;2024-02-23T08:00:12;99215.47;;;11.11;54.83
85066;BME280;75401;52.588;13.224;2024-02-23T08:02:37;99225.25;;;11.04;53.87
85066;BME280;75401;52.588;13.224;2024-02-23T08:05:03;99227.81;;;11.12;53.97
85066;BME280;75401;52.588;13.224;2024-02-23T08:07:28;99233.00;;;11.13;54.47
85066;BME280;75401;52.588;13.224;2024-02-23T08:09:54;99243.94;;;11.18;53.54
85066;BME280;75401;52.588;13.224;2024-02-23T08:12:20;99251.84;;;11.26;54.16
85066;BME280;75401;52.588;13.224;2024-02-23T08:14:46;99243.03;;;11.32;54.16
85066;BME280;75401;52.588;13.224;2024-02-23T08:17:11;99250.69;;;11.35;54.56
85066;BME280;75401;52.588;13.224;2024-02-23T08:19:36;99247.75;;;11.30;52.99
85066;BME280;75401;52.588;13.224;2024-02-23T08:22:01;99258.97;;;11.41;53.81
85066;BME280;75401;52.588;13.224;2024-02-23T08:24:27;99255.69;;;11.45;53.38
85066;BME280;75401;52.588;13.224;2024-02-23T08:26:52;99256.59;;;11.52;54.28
85066;BME280;75401;52.588;13.224;2024-02-23T08:29:19;99256.63;;;11.31;52.60
85066;BME280;75401;52.588;13.224;2024-02-23T08:31:44;99268.41;;;11.36;54.08
85066;BME280;75401;52.588;13.224;2024-02-23T08:34:09;99272.25;;;11.55;54.43
85066;BME280;75401;52.588;13.224;2024-02-23T08:36:35;99267.13;;;11.54;53.66
85066;BME280;75401;52.588;13.224;2024-02-23T08:39:00;99268.97;;;11.53;54.13
85066;BME280;75401;52.588;13.224;2024-02-23T08:41:25;99276.25;;;11.38;53.62
85066;BME280;75401;52.588;13.224;2024-02-23T08:43:51;99277.06;;;11.60;54.24
85066;BME280;75401;52.588;13.224;2024-02-23T08:46:17;99282.09;;;11.69;53.27
85066;BME280;75401;52.588;13.224;2024-02-23T08:48:43;99284.78;;;11.69;53.22
85066;BME280;75401;52.588;13.224;2024-02-23T08:51:08;99281.72;;;11.30;53.25
85066;BME280;75401;52.588;13.224;2024-02-23T08:53:33;99292.88;;;11.55;53.59
85066;BME280;75401;52.588;13.224;2024-02-23T08:57:33;99278.69;;;11.61;51.48
85066;BME280;75401;52.588;13.224;2024-02-23T08:59:58;99299.94;;;11.62;53.49
85066;BME280;75401;52.588;13.224;2024-02-23T09:02:23;99300.72;;;11.56;51.54
85066;BME280;75401;52.588;13.224;2024-02-23T09:04:49;99297.03;;;11.57;51.23
85066;BME280;75401;52.588;13.224;2024-02-23T09:07:14;99290.16;;;11.69;51.73
85066;BME280;75401;52.588;13.224;2024-02-23T09:09:39;99304.56;;;11.96;51.70
85066;BME280;75401;52.588;13.224;2024-02-23T09:12:05;99299.66;;;11.72;51.14
85066;BME280;75401;52.588;13.224;2024-02-23T09:14:32;99298.63;;;12.01;50.57
85066;BME280;75401;52.588;13.224;2024-02-23T09:16:57;99296.41;;;12.11;51.19
85066;BME280;75401;52.588;13.224;2024-02-23T09:19:23;99297.66;;;12.15;48.92
85066;BME280;75401;52.588;13.224;2024-02-23T09:21:48;99304.09;;;12.20;50.33
85066;BME280;75401;52.588;13.224;2024-02-23T09:24:13;99308.00;;;12.18;51.91
85066;BME280;75401;52.588;13.224;2024-02-23T09:26:39;99307.78;;;12.13;49.92
85066;BME280;75401;52.588;13.224;2024-02-23T09:29:04;99325.47;;;12.41;52.05
85066;BME280;75401;52.588;13.224;2024-02-23T09:31:31;99314.84;;;12.20;49.71
85066;BME280;75401;52.588;13.224;2024-02-23T09:33:57;99319.25;;;12.07;49.22
85066;BME280;75401;52.588;13.224;2024-02-23T09:36:22;99325.81;;;11.97;49.67
85066;BME280;75401;52.588;13.224;2024-02-23T09:38:47;99321.47;;;11.96;49.69
85066;BME280;75401;52.588;13.224;2024-02-23T09:41:19;99321.13;;;12.06;48.98
85066;BME280;75401;52.588;13.224;2024-02-23T09:43:45;99323.88;;;12.19;50.34
85066;BME280;75401;52.588;13.224;2024-02-23T09:46:11;99340.59;;;11.93;49.15
85066;BME280;75401;52.588;13.224;2024-02-23T09:48:38;99306.34;;;11.68;49.39
85066;BME280;75401;52.588;13.224;2024-02-23T09:51:05;99353.13;;;11.86;48.35
85066;BME280;75401;52.588;13.224;2024-02-23T09:53:31;99350.59;;;12.34;49.86
85066;BME280;75401;52.588;13.224;2024-02-23T09:55:57;99370.78;;;12.30;48.19
85066;BME280;75401;52.588;13.224;2024-02-23T09:58:24;99368.81;;;12.45;49.82
85066;BME280;75401;52.588;13.224;2024-02-23T10:00:50;99383.69;;;12.20;47.82
85066;BME280;75401;52.588;13.224;2024-02-23T10:03:16;99379.69;;;11.81;47.65
85066;BME280;75401;52.588;13.224;2024-02-23T10:05:43;99377.88;;;12.16;48.77
85066;BME280;75401;52.588;13.224;2024-02-23T10:08:08;99373.91;;;12.33;48.44
85066;BME280;75401;52.588;13.224;2024-02-23T10:10:33;99370.72;;;12.51;48.76
85066;BME280;75401;52.588;13.224;2024-02-23T10:12:59;99363.34;;;12.59;50.01
85066;BME280;75401;52.588;13.224;2024-02-23T10:15:24;99382.53;;;12.63;47.93
85066;BME280;75401;52.588;13.224;2024-02-23T10:17:50;99389.50;;;12.51;49.11
85066;BME280;75401;52.588;13.224;2024-02-23T10:20:15;99380.97;;;12.41;48.73
85066;BME280;75401;52.588;13.224;2024-02-23T10:22:42;99393.31;;;12.35;47.30
85066;BME280;75401;52.588;13.224;2024-02-23T10:25:08;99383.44;;;12.42;49.68
85066;BME280;75401;52.588;13.224;2024-02-23T10:27:33;99390.94;;;12.53;49.99
85066;BME280;75401;52.588;13.224;2024-02-23T10:29:59;99384.00;;;12.66;49.28
85066;BME280;75401;52.588;13.224;2024-02-23T10:32:25;99381.59;;;12.77;49.41
85066;BME280;75401;52.588;13.224;2024-02-23T10:34:55;99385.84;;;12.65;48.39
85066;BME280;75401;52.588;13.224;2024-02-23T10:37:21;99383.09;;;12.52;48.47
85066;BME280;75401;52.588;13.224;2024-02-23T10:39:52;99391.25;;;12.37;48.17
85066;BME280;75401;52.588;13.224;2024-02-23T10:42:22;99380.91;;;12.34;47.35
85066;BME280;75401;52.588;13.224;2024-02-23T10:44:49;99379.38;;;12.53;47.78
85066;BME280;75401;52.588;13.224;2024-02-23T10:47:15;99385.84;;;12.65;47.82
85066;BME280;75401;52.588;13.224;2024-02-23T10:49:41;99394.34;;;12.69;47.43
85066;BME280;75401;52.588;13.224;2024-02-23T10:52:08;99398.28;;;12.73;47.62
85066;BME280;75401;52.588;13.224;2024-02-23T10:54:34;99395.09;;;12.56;46.06
85066;BME280;75401;52.588;13.224;2024-02-23T10:57:01;99367.72;;;12.33;45.97
85066;BME280;75401;52.588;13.224;2024-02-23T10:59:27;99386.69;;;12.66;47.01
85066;BME280;75401;52.588;13.224;2024-02-23T11:01:53;99386.84;;;12.57;47.56
85066;BME280;75401;52.588;13.224;2024-02-23T11:04:20;99386.72;;;12.72;46.38
85066;BME280;75401;52.588;13.224;2024-02-23T11:06:49;99402.06;;;12.85;45.79
85066;BME280;75401;52.588;13.224;2024-02-23T11:09:15;99396.72;;;12.85;47.48
85066;BME280;75401;52.588;13.224;2024-02-23T11:11:51;99399.34;;;12.78;45.99
85066;BME280;75401;52.588;13.224;2024-02-23T11:14:29;99391.06;;;12.73;47.18
85066;BME280;75401;52.588;13.224;2024-02-23T11:16:55;99393.41;;;12.89;47.09
85066;BME280;75401;52.588;13.224;2024-02-23T11:19:20;99388.06;;;12.96;48.22
85066;BME280;75401;52.588;13.224;2024-02-23T11:21:52;99388.38;;;13.14;47.09
85066;BME280;75401;52.588;13.224;2024-02-23T11:24:17;99394.91;;;12.98;47.83
85066;BME280;75401;52.588;13.224;2024-02-23T11:26:43;99401.03;;;13.20;48.40
85066;BME280;75401;52.588;13.224;2024-02-23T11:29:11;99400.22;;;13.33;46.37
85066;BME280;75401;52.588;13.224;2024-02-23T11:31:44;99418.16;;;13.19;48.26
85066;BME280;75401;52.588;13.224;2024-02-23T11:34:10;99418.03;;;13.34;46.33
85066;BME280;75401;52.588;13.224;2024-02-23T11:36:38;99419.06;;;13.46;45.72
85066;BME280;75401;52.588;13.224;2024-02-23T11:39:04;99408.94;;;13.48;45.85
85066;BME280;75401;52.588;13.224;2024-02-23T11:41:29;99383.41;;;13.11;46.47
85066;BME280;75401;52.588;13.224;2024-02-23T11:43:56;99412.47;;;13.55;47.40
85066;BME280;75401;52.588;13.224;2024-02-23T11:46:22;99395.34;;;13.56;46.47
85066;BME280;75401;52.588;13.224;2024-02-23T11:48:52;99404.59;;;13.34;44.09
85066;BME280;75401;52.588;13.224;2024-02-23T11:51:18;99409.59;;;13.56;45.91
85066;BME280;75401;52.588;13.224;2024-02-23T11:53:44;99410.47;;;13.16;44.33
85066;BME280;75401;52.588;13.224;2024-02-23T11:56:10;99417.81;;;13.42;46.52
85066;BME280;75401;52.588;13.224;2024-02-23T11:58:35;99424.06;;;13.49;46.03
85066;BME280;75401;52.588;13.224;2024-02-23T12:01:00;99427.34;;;13.51;47.74
85066;BME280;75401;52.588;13.224;2024-02-23T12:03:26;99421.72;;;13.39;46.86
85066;BME280;75401;52.588;13.224;2024-02-23T12:05:53;99414.16;;;13.56;46.96
85066;BME280;75401;52.588;13.224;2024-02-23T12:08:18;99414.97;;;13.63;45.35
85066;BME280;75401;52.588;13.224;2024-02-23T12:10:44;99423.06;;;13.69;46.82
85066;BME280;75401;52.588;13.224;2024-02-23T12:13:10;99422.00;;;13.57;44.84
85066;BME280;75401;52.588;13.224;2024-02-23T12:15:35;99424.69;;;13.51;46.82
85066;BME280;75401;52.588;13.224;2024-02-23T12:18:03;99428.38;;;13.50;46.63
85066;BME280;75401;52.588;13.224;2024-02-23T12:20:32;99434.59;;;13.50;45.98
85066;BME280;75401;52.588;13.224;2024-02-23T12:23:00;99429.78;;;13.39;45.57
85066;BME280;75401;52.588;13.224;2024-02-23T12:25:26;99409.31;;;12.91;44.79
85066;BME280;75401;52.588;13.224;2024-02-23T12:27:55;99422.28;;;13.15;45.33
85066;BME280;75401;52.588;13.224;2024-02-23T12:30:20;99440.41;;;13.06;45.35
85066;BME280;75401;52.588;13.224;2024-02-23T12:32:46;99438.06;;;13.31;44.45
85066;BME280;75401;52.588;13.224;2024-02-23T12:35:11;99441.75;;;12.96;45.42
85066;BME280;75401;52.588;13.224;2024-02-23T12:37:36;99438.91;;;13.38;46.36
85066;BME280;75401;52.588;13.224;2024-02-23T12:40:05;99451.94;;;13.48;45.50
85066;BME280;75401;52.588;13.224;2024-02-23T12:42:30;99444.50;;;13.43;45.61
85066;BME280;75401;52.588;13.224;2024-02-23T12:44:56;99447.44;;;13.07;45.68